sensor_id;sensor_type;location;lat;lon;timestamp;temperature;humidity
70107;DHT22;57473;37.508;15.080;2023-02-23T00:01:47;10.60;89.70
70107;DHT22;57473;37.508;15.080;2023-02-23T00:04:14;10.60;89.60
70107;DHT22;57473;37.508;15.080;2023-02-23T00:06:41;10.60;89.60
70107;DHT22;57473;37.508;15.080;2023-02-23T00:09:09;10.60;90.20
70107;DHT22;57473;37.508;15.080;2023-02-23T00:11:57;10.60;90.10
70107;DHT22;57473;37.508;15.080;2023-02-23T00:14:26;10.60;90.30
70107;DHT22;57473;37.508;15.080;2023-02-23T00:16:56;10.50;89.80
70107;DHT22;57473;37.508;15.080;2023-02-23T00:19:24;10.50;90.10
70107;DHT22;57473;37.508;15.080;2023-02-23T00:21:52;10.60;90.20
70107;DHT22;57473;37.508;15.080;2023-02-23T00:24:21;10.60;89.90
70107;DHT22;57473;37.508;15.080;2023-02-23T00:26:49;10.60;89.80
70107;DHT22;57473;37.508;15.080;2023-02-23T00:29:20;10.50;90.40
70107;DHT22;57473;37.508;15.080;2023-02-23T00:31:49;10.50;90.40
70107;DHT22;57473;37.508;15.080;2023-02-23T00:34:19;10.50;90.30
70107;DHT22;57473;37.508;15.080;2023-02-23T00:36:52;10.50;90.30
70107;DHT22;57473;37.508;15.080;2023-02-23T00:39:22;10.50;90.00
70107;DHT22;57473;37.508;15.080;2023-02-23T00:41:56;10.40;89.90
70107;DHT22;57473;37.508;15.080;2023-02-23T00:44:29;10.40;89.10
70107;DHT22;57473;37.508;15.080;2023-02-23T00:46:58;10.40;89.40
70107;DHT22;57473;37.508;15.080;2023-02-23T00:49:26;10.40;89.30
70107;DHT22;57473;37.508;15.080;2023-02-23T00:51:54;10.40;89.00
70107;DHT22;57473;37.508;15.080;2023-02-23T00:54:21;10.30;89.10
70107;DHT22;57473;37.508;15.080;2023-02-23T00:56:49;10.30;89.30
70107;DHT22;57473;37.508;15.080;2023-02-23T00:59:17;10.30;88.90
70107;DHT22;57473;37.508;15.080;2023-02-23T01:01:45;10.30;88.90
70107;DHT22;57473;37.508;15.080;2023-02-23T01:04:13;10.30;89.60
70107;DHT22;57473;37.508;15.080;2023-02-23T01:06:41;10.20;89.60
70107;DHT22;57473;37.508;15.080;2023-02-23T01:09:12;10.20;90.00
70107;DHT22;57473;37.508;15.080;2023-02-23T01:11:42;10.20;90.30
70107;DHT22;57473;37.508;15.080;2023-02-23T01:14:14;10.20;90.80
70107;DHT22;57473;37.508;15.080;2023-02-23T01:16:41;10.20;91.00
70107;DHT22;57473;37.508;15.080;2023-02-23T01:19:09;10.20;90.90
70107;DHT22;57473;37.508;15.080;2023-02-23T01:21:41;10.10;91.20
70107;DHT22;57473;37.508;15.080;2023-02-23T01:24:09;10.10;91.40
70107;DHT22;57473;37.508;15.080;2023-02-23T01:26:41;10.10;91.40
70107;DHT22;57473;37.508;15.080;2023-02-23T01:29:11;10.10;91.30
70107;DHT22;57473;37.508;15.080;2023-02-23T01:31:42;10.10;91.40
70107;DHT22;57473;37.508;15.080;2023-02-23T01:34:11;10.10;91.80
70107;DHT22;57473;37.508;15.080;2023-02-23T01:36:41;10.00;92.30
70107;DHT22;57473;37.508;15.080;2023-02-23T01:39:12;10.00;92.40
70107;DHT22;57473;37.508;15.080;2023-02-23T01:41:40;10.00;92.70
70107;DHT22;57473;37.508;15.080;2023-02-23T01:46:43;10.00;92.90
70107;DHT22;57473;37.508;15.080;2023-02-23T01:49:30;9.90;93.10
70107;DHT22;57473;37.508;15.080;2023-02-23T01:52:09;9.90;93.60
70107;DHT22;57473;37.508;15.080;2023-02-23T01:54:52;9.90;93.40
70107;DHT22;57473;37.508;15.080;2023-02-23T01:57:22;9.90;93.50
70107;DHT22;57473;37.508;15.080;2023-02-23T01:59:52;10.00;93.50
70107;DHT22;57473;37.508;15.080;2023-02-23T02:02:23;10.00;93.70
70107;DHT22;57473;37.508;15.080;2023-02-23T02:04:59;9.90;93.60
70107;DHT22;57473;37.508;15.080;2023-02-23T02:07:29;9.90;93.90
70107;DHT22;57473;37.508;15.080;2023-02-23T02:09:58;9.80;94.50
70107;DHT22;57473;37.508;15.080;2023-02-23T02:12:38;9.80;94.10
70107;DHT22;57473;37.508;15.080;2023-02-23T02:15:07;9.80;94.30
70107;DHT22;57473;37.508;15.080;2023-02-23T02:23:46;9.60;94.20
70107;DHT22;57473;37.508;15.080;2023-02-23T02:26:32;9.60;94.50
70107;DHT22;57473;37.508;15.080;2023-02-23T02:38:02;9.60;94.10
70107;DHT22;57473;37.508;15.080;2023-02-23T02:46:20;9.60;93.90
70107;DHT22;57473;37.508;15.080;2023-02-23T02:54:29;9.70;94.00
70107;DHT22;57473;37.508;15.080;2023-02-23T02:57:00;9.80;93.70
70107;DHT22;57473;37.508;15.080;2023-02-23T02:59:28;9.90;93.60
70107;DHT22;57473;37.508;15.080;2023-02-23T03:02:18;9.90;93.60
70107;DHT22;57473;37.508;15.080;2023-02-23T03:05:16;9.80;93.80
70107;DHT22;57473;37.508;15.080;2023-02-23T03:08:32;9.80;94.30
70107;DHT22;57473;37.508;15.080;2023-02-23T03:11:23;9.80;94.70
70107;DHT22;57473;37.508;15.080;2023-02-23T03:14:33;9.80;95.20
70107;DHT22;57473;37.508;15.080;2023-02-23T03:20:25;9.60;96.10
70107;DHT22;57473;37.508;15.080;2023-02-23T03:29:34;9.60;97.90
70107;DHT22;57473;37.508;15.080;2023-02-23T03:32:32;9.60;98.40
70107;DHT22;57473;37.508;15.080;2023-02-23T03:35:27;9.60;99.60
70107;DHT22;57473;37.508;15.080;2023-02-23T03:38:24;9.70;99.40
70107;DHT22;57473;37.508;15.080;2023-02-23T03:41:12;9.60;99.40
70107;DHT22;57473;37.508;15.080;2023-02-23T03:44:14;9.50;99.80
70107;DHT22;57473;37.508;15.080;2023-02-23T03:47:04;9.50;99.90
70107;DHT22;57473;37.508;15.080;2023-02-23T03:49:53;9.50;99.90
70107;DHT22;57473;37.508;15.080;2023-02-23T03:52:48;9.50;99.90
70107;DHT22;57473;37.508;15.080;2023-02-23T03:55:37;9.50;99.90
70107;DHT22;57473;37.508;15.080;2023-02-23T03:58:30;9.50;99.90
70107;DHT22;57473;37.508;15.080;2023-02-23T04:01:19;9.50;99.90
70107;DHT22;57473;37.508;15.080;2023-02-23T04:04:08;9.50;99.90
70107;DHT22;57473;37.508;15.080;2023-02-23T04:06:57;9.60;99.90
70107;DHT22;57473;37.508;15.080;2023-02-23T04:09:44;9.70;99.90
70107;DHT22;57473;37.508;15.080;2023-02-23T04:15:37;9.70;99.90
70107;DHT22;57473;37.508;15.080;2023-02-23T04:18:06;9.70;99.90
70107;DHT22;57473;37.508;15.080;2023-02-23T04:20:34;9.70;99.90
70107;DHT22;57473;37.508;15.080;2023-02-23T04:23:01;9.70;99.90
70107;DHT22;57473;37.508;15.080;2023-02-23T04:25:29;9.70;99.90
70107;DHT22;57473;37.508;15.080;2023-02-23T04:27:56;9.70;99.90
70107;DHT22;57473;37.508;15.080;2023-02-23T04:30:24;9.80;99.90
70107;DHT22;57473;37.508;15.080;2023-02-23T04:32:51;9.80;99.90
70107;DHT22;57473;37.508;15.080;2023-02-23T04:35:19;9.90;99.90
70107;DHT22;57473;37.508;15.080;2023-02-23T04:37:47;10.00;99.90
70107;DHT22;57473;37.508;15.080;2023-02-23T04:40:14;10.20;99.90
70107;DHT22;57473;37.508;15.080;2023-02-23T04:42:41;10.30;99.90
70107;DHT22;57473;37.508;15.080;2023-02-23T04:45:09;10.40;99.90
70107;DHT22;57473;37.508;15.080;2023-02-23T04:47:37;10.50;99.90
70107;DHT22;57473;37.508;15.080;2023-02-23T04:50:04;10.50;99.90
70107;DHT22;57473;37.508;15.080;2023-02-23T04:52:32;10.60;99.90
70107;DHT22;57473;37.508;15.080;2023-02-23T04:55:01;10.70;99.90
70107;DHT22;57473;37.508;15.080;2023-02-23T04:57:28;10.70;99.90
70107;DHT22;57473;37.508;15.080;2023-02-23T04:59:55;10.70;99.90
70107;DHT22;57473;37.508;15.080;2023-02-23T05:02:23;10.80;99.90
70107;DHT22;57473;37.508;15.080;2023-02-23T05:04:51;10.80;99.90
70107;DHT22;57473;37.508;15.080;2023-02-23T05:07:18;10.90;99.90
70107;DHT22;57473;37.508;15.080;2023-02-23T05:09:45;10.90;99.90
70107;DHT22;57473;37.508;15.080;2023-02-23T05:12:13;10.90;99.90
70107;DHT22;57473;37.508;15.080;2023-02-23T05:14:40;10.90;99.90
70107;DHT22;57473;37.508;15.080;2023-02-23T05:17:08;10.90;99.90
70107;DHT22;57473;37.508;15.080;2023-02-23T05:19:35;10.90;99.90
70107;DHT22;57473;37.508;15.080;2023-02-23T05:22:04;10.90;99.90
70107;DHT22;57473;37.508;15.080;2023-02-23T05:24:31;10.90;99.90
70107;DHT22;57473;37.508;15.080;2023-02-23T05:26:58;10.90;99.90
70107;DHT22;57473;37.508;15.080;2023-02-23T05:29:26;10.90;99.90
70107;DHT22;57473;37.508;15.080;2023-02-23T05:31:53;10.90;99.90
70107;DHT22;57473;37.508;15.080;2023-02-23T05:34:21;10.90;99.90
70107;DHT22;57473;37.508;15.080;2023-02-23T05:36:48;10.80;99.90
70107;DHT22;57473;37.508;15.080;2023-02-23T05:39:15;10.80;99.90
70107;DHT22;57473;37.508;15.080;2023-02-23T05:41:42;10.80;99.90
70107;DHT22;57473;37.508;15.080;2023-02-23T05:44:10;10.90;99.90
70107;DHT22;57473;37.508;15.080;2023-02-23T05:46:37;10.80;99.90
70107;DHT22;57473;37.508;15.080;2023-02-23T05:49:05;10.80;99.90
70107;DHT22;57473;37.508;15.080;2023-02-23T05:51:33;10.80;99.90
70107;DHT22;57473;37.508;15.080;2023-02-23T05:54:01;10.80;99.90
70107;DHT22;57473;37.508;15.080;2023-02-23T05:56:28;10.80;99.90
70107;DHT22;57473;37.508;15.080;2023-02-23T05:58:57;10.80;99.90
70107;DHT22;57473;37.508;15.080;2023-02-23T06:01:26;10.70;99.90
70107;DHT22;57473;37.508;15.080;2023-02-23T06:03:54;10.70;99.90
70107;DHT22;57473;37.508;15.080;2023-02-23T06:06:22;10.70;99.90
70107;DHT22;57473;37.508;15.080;2023-02-23T06:08:51;10.80;99.90
70107;DHT22;57473;37.508;15.080;2023-02-23T06:11:18;10.80;99.90
70107;DHT22;57473;37.508;15.080;2023-02-23T06:13:46;10.80;99.90
70107;DHT22;57473;37.508;15.080;2023-02-23T06:16:14;10.80;99.90
70107;DHT22;57473;37.508;15.080;2023-02-23T06:18:42;10.80;99.90
70107;DHT22;57473;37.508;15.080;2023-02-23T06:21:09;10.80;99.90
70107;DHT22;57473;37.508;15.080;2023-02-23T06:23:37;10.90;99.90
70107;DHT22;57473;37.508;15.080;2023-02-23T06:26:04;10.90;99.90
70107;DHT22;57473;37.508;15.080;2023-02-23T06:28:32;10.90;99.90
70107;DHT22;57473;37.508;15.080;2023-02-23T06:31:00;10.90;99.90
70107;DHT22;57473;37.508;15.080;2023-02-23T06:33:27;11.00;99.90
70107;DHT22;57473;37.508;15.080;2023-02-23T06:35:55;11.10;99.90
70107;DHT22;57473;37.508;15.080;2023-02-23T06:38:23;11.10;99.90
70107;DHT22;57473;37.508;15.080;2023-02-23T06:40:50;11.20;99.90
70107;DHT22;57473;37.508;15.080;2023-02-23T06:43:17;11.30;99.90
70107;DHT22;57473;37.508;15.080;2023-02-23T06:45:45;11.40;99.90
70107;DHT22;57473;37.508;15.080;2023-02-23T06:48:13;11.50;99.90
70107;DHT22;57473;37.508;15.080;2023-02-23T06:50:40;11.60;99.90
70107;DHT22;57473;37.508;15.080;2023-02-23T06:53:08;11.70;99.90
70107;DHT22;57473;37.508;15.080;2023-02-23T06:55:35;11.70;99.90
70107;DHT22;57473;37.508;15.080;2023-02-23T06:58:02;11.80;99.90
70107;DHT22;57473;37.508;15.080;2023-02-23T07:00:30;11.90;99.90
70107;DHT22;57473;37.508;15.080;2023-02-23T07:02:58;12.00;99.90
70107;DHT22;57473;37.508;15.080;2023-02-23T07:05:26;12.00;99.90
70107;DHT22;57473;37.508;15.080;2023-02-23T07:07:53;12.10;99.90
70107;DHT22;57473;37.508;15.080;2023-02-23T07:10:20;12.20;99.90
70107;DHT22;57473;37.508;15.080;2023-02-23T07:12:48;12.30;99.90
70107;DHT22;57473;37.508;15.080;2023-02-23T07:15:15;12.40;99.90
70107;DHT22;57473;37.508;15.080;2023-02-23T07:17:44;12.40;99.70
70107;DHT22;57473;37.508;15.080;2023-02-23T07:20:15;12.50;99.60
70107;DHT22;57473;37.508;15.080;2023-02-23T07:22:42;12.50;99.40
70107;DHT22;57473;37.508;15.080;2023-02-23T07:25:10;12.50;98.90
70107;DHT22;57473;37.508;15.080;2023-02-23T07:27:37;12.60;98.50
70107;DHT22;57473;37.508;15.080;2023-02-23T07:30:05;12.60;98.70
70107;DHT22;57473;37.508;15.080;2023-02-23T07:32:33;12.70;96.40
70107;DHT22;57473;37.508;15.080;2023-02-23T07:35:01;12.70;95.70
70107;DHT22;57473;37.508;15.080;2023-02-23T07:37:28;12.90;94.40
70107;DHT22;57473;37.508;15.080;2023-02-23T07:39:55;13.00;93.20
70107;DHT22;57473;37.508;15.080;2023-02-23T07:42:25;13.00;91.80
70107;DHT22;57473;37.508;15.080;2023-02-23T07:44:52;13.00;91.20
70107;DHT22;57473;37.508;15.080;2023-02-23T07:47:20;13.10;91.50
70107;DHT22;57473;37.508;15.080;2023-02-23T07:49:49;13.20;90.90
70107;DHT22;57473;37.508;15.080;2023-02-23T07:52:17;13.20;90.90
70107;DHT22;57473;37.508;15.080;2023-02-23T07:54:45;13.30;89.40
70107;DHT22;57473;37.508;15.080;2023-02-23T07:57:12;13.30;88.40
70107;DHT22;57473;37.508;15.080;2023-02-23T07:59:40;13.40;88.40
70107;DHT22;57473;37.508;15.080;2023-02-23T08:02:10;13.50;88.30
70107;DHT22;57473;37.508;15.080;2023-02-23T08:04:38;13.50;89.00
70107;DHT22;57473;37.508;15.080;2023-02-23T08:07:06;13.60;89.20
70107;DHT22;57473;37.508;15.080;2023-02-23T08:09:35;13.70;90.00
70107;DHT22;57473;37.508;15.080;2023-02-23T08:12:03;13.90;89.60
70107;DHT22;57473;37.508;15.080;2023-02-23T08:14:30;14.00;88.70
70107;DHT22;57473;37.508;15.080;2023-02-23T08:16:58;14.20;88.10
70107;DHT22;57473;37.508;15.080;2023-02-23T08:19:27;14.40;86.50
70107;DHT22;57473;37.508;15.080;2023-02-23T08:21:55;14.50;85.30
70107;DHT22;57473;37.508;15.080;2023-02-23T08:24:24;14.70;84.70
70107;DHT22;57473;37.508;15.080;2023-02-23T08:26:52;14.80;84.00
70107;DHT22;57473;37.508;15.080;2023-02-23T08:29:20;14.70;82.80
70107;DHT22;57473;37.508;15.080;2023-02-23T08:31:47;14.70;82.80
70107;DHT22;57473;37.508;15.080;2023-02-23T08:34:18;14.80;83.10
70107;DHT22;57473;37.508;15.080;2023-02-23T08:36:46;14.90;82.30
70107;DHT22;57473;37.508;15.080;2023-02-23T08:39:14;14.90;82.00
70107;DHT22;57473;37.508;15.080;2023-02-23T08:41:42;15.10;81.50
70107;DHT22;57473;37.508;15.080;2023-02-23T08:44:09;15.20;81.10
70107;DHT22;57473;37.508;15.080;2023-02-23T08:46:36;15.20;81.70
70107;DHT22;57473;37.508;15.080;2023-02-23T08:49:04;15.40;80.50
70107;DHT22;57473;37.508;15.080;2023-02-23T08:51:32;15.40;80.60
70107;DHT22;57473;37.508;15.080;2023-02-23T08:54:01;15.40;80.50
70107;DHT22;57473;37.508;15.080;2023-02-23T08:56:28;15.40;80.70
70107;DHT22;57473;37.508;15.080;2023-02-23T08:58:57;15.30;81.20
70107;DHT22;57473;37.508;15.080;2023-02-23T09:01:25;15.50;80.60
70107;DHT22;57473;37.508;15.080;2023-02-23T09:03:52;15.70;79.80
70107;DHT22;57473;37.508;15.080;2023-02-23T09:06:21;15.60;80.20
70107;DHT22;57473;37.508;15.080;2023-02-23T09:08:50;15.90;79.20
70107;DHT22;57473;37.508;15.080;2023-02-23T09:11:17;16.00;77.90
70107;DHT22;57473;37.508;15.080;2023-02-23T09:13:45;15.90;77.70
70107;DHT22;57473;37.508;15.080;2023-02-23T09:16:12;15.80;78.50
70107;DHT22;57473;37.508;15.080;2023-02-23T09:18:40;16.00;77.50
70107;DHT22;57473;37.508;15.080;2023-02-23T09:21:12;15.90;77.40
70107;DHT22;57473;37.508;15.080;2023-02-23T09:23:46;16.10;75.90
70107;DHT22;57473;37.508;15.080;2023-02-23T09:26:15;16.00;76.80
70107;DHT22;57473;37.508;15.080;2023-02-23T09:28:45;15.80;78.10
70107;DHT22;57473;37.508;15.080;2023-02-23T09:31:15;16.00;77.80
70107;DHT22;57473;37.508;15.080;2023-02-23T09:33:44;16.20;76.20
70107;DHT22;57473;37.508;15.080;2023-02-23T09:36:16;16.20;75.40
70107;DHT22;57473;37.508;15.080;2023-02-23T09:38:46;16.40;74.80
70107;DHT22;57473;37.508;15.080;2023-02-23T09:49:28;16.50;73.50
70107;DHT22;57473;37.508;15.080;2023-02-23T09:52:00;16.50;73.60
70107;DHT22;57473;37.508;15.080;2023-02-23T09:54:33;16.30;74.70
70107;DHT22;57473;37.508;15.080;2023-02-23T09:57:11;16.40;74.50
70107;DHT22;57473;37.508;15.080;2023-02-23T09:59:40;16.50;74.30
70107;DHT22;57473;37.508;15.080;2023-02-23T10:05:07;16.70;72.90
70107;DHT22;57473;37.508;15.080;2023-02-23T10:11:35;16.70;72.50
70107;DHT22;57473;37.508;15.080;2023-02-23T10:22:08;17.10;69.60
70107;DHT22;57473;37.508;15.080;2023-02-23T10:24:39;17.10;71.00
70107;DHT22;57473;37.508;15.080;2023-02-23T10:27:15;17.10;70.40
70107;DHT22;57473;37.508;15.080;2023-02-23T10:29:54;17.10;70.90
70107;DHT22;57473;37.508;15.080;2023-02-23T10:32:40;17.20;71.10
70107;DHT22;57473;37.508;15.080;2023-02-23T10:35:15;17.30;69.70
70107;DHT22;57473;37.508;15.080;2023-02-23T10:37:44;17.20;70.50
70107;DHT22;57473;37.508;15.080;2023-02-23T10:40:17;17.30;69.90
70107;DHT22;57473;37.508;15.080;2023-02-23T10:42:46;17.40;69.40
70107;DHT22;57473;37.508;15.080;2023-02-23T10:45:16;17.20;70.80
70107;DHT22;57473;37.508;15.080;2023-02-23T10:48:00;17.10;69.70
70107;DHT22;57473;37.508;15.080;2023-02-23T10:50:31;17.10;70.60
70107;DHT22;57473;37.508;15.080;2023-02-23T10:53:09;16.80;72.70
70107;DHT22;57473;37.508;15.080;2023-02-23T10:55:37;16.70;74.20
70107;DHT22;57473;37.508;15.080;2023-02-23T10:58:16;16.90;73.00
70107;DHT22;57473;37.508;15.080;2023-02-23T11:00:56;16.90;72.50
70107;DHT22;57473;37.508;15.080;2023-02-23T11:03:37;17.00;71.50
70107;DHT22;57473;37.508;15.080;2023-02-23T11:06:30;17.00;73.10
70107;DHT22;57473;37.508;15.080;2023-02-23T11:08:57;17.30;71.70
70107;DHT22;57473;37.508;15.080;2023-02-23T11:11:26;17.30;71.80
70107;DHT22;57473;37.508;15.080;2023-02-23T11:13:56;17.40;71.60
70107;DHT22;57473;37.508;15.080;2023-02-23T11:16:37;17.50;70.80
70107;DHT22;57473;37.508;15.080;2023-02-23T11:19:16;17.70;70.00
70107;DHT22;57473;37.508;15.080;2023-02-23T11:21:50;17.70;69.70
70107;DHT22;57473;37.508;15.080;2023-02-23T11:24:24;17.80;69.40
70107;DHT22;57473;37.508;15.080;2023-02-23T11:26:54;17.90;69.70
70107;DHT22;57473;37.508;15.080;2023-02-23T11:29:33;18.20;68.40
70107;DHT22;57473;37.508;15.080;2023-02-23T11:32:18;18.50;67.20
70107;DHT22;57473;37.508;15.080;2023-02-23T11:34:47;18.90;65.60
70107;DHT22;57473;37.508;15.080;2023-02-23T11:37:35;19.00;65.00
70107;DHT22;57473;37.508;15.080;2023-02-23T11:43:06;19.70;62.80
70107;DHT22;57473;37.508;15.080;2023-02-23T11:45:50;19.60;63.20
70107;DHT22;57473;37.508;15.080;2023-02-23T11:48:30;19.90;62.00
70107;DHT22;57473;37.508;15.080;2023-02-23T11:50:59;20.40;60.70
70107;DHT22;57473;37.508;15.080;2023-02-23T11:53:39;20.10;61.70
70107;DHT22;57473;37.508;15.080;2023-02-23T11:56:10;19.90;61.90
70107;DHT22;57473;37.508;15.080;2023-02-23T11:58:42;19.90;62.00
70107;DHT22;57473;37.508;15.080;2023-02-23T12:01:13;20.00;61.50
70107;DHT22;57473;37.508;15.080;2023-02-23T12:03:53;20.30;60.40
70107;DHT22;57473;37.508;15.080;2023-02-23T12:06:37;20.20;60.80
70107;DHT22;57473;37.508;15.080;2023-02-23T12:12:07;20.30;61.20
70107;DHT22;57473;37.508;15.080;2023-02-23T12:14:40;20.10;61.70
70107;DHT22;57473;37.508;15.080;2023-02-23T12:17:25;20.50;60.90
70107;DHT22;57473;37.508;15.080;2023-02-23T12:20:09;20.20;61.30
70107;DHT22;57473;37.508;15.080;2023-02-23T12:22:51;20.30;60.80
70107;DHT22;57473;37.508;15.080;2023-02-23T12:28:23;19.70;61.60
70107;DHT22;57473;37.508;15.080;2023-02-23T12:31:00;19.90;61.80
70107;DHT22;57473;37.508;15.080;2023-02-23T12:33:40;19.60;62.60
70107;DHT22;57473;37.508;15.080;2023-02-23T12:36:31;19.50;64.00
70107;DHT22;57473;37.508;15.080;2023-02-23T12:39:25;19.90;62.00
70107;DHT22;57473;37.508;15.080;2023-02-23T12:41:59;19.80;61.70
70107;DHT22;57473;37.508;15.080;2023-02-23T12:44:36;19.60;63.00
70107;DHT22;57473;37.508;15.080;2023-02-23T12:50:01;20.50;59.80
70107;DHT22;57473;37.508;15.080;2023-02-23T12:52:56;20.20;60.10
70107;DHT22;57473;37.508;15.080;2023-02-23T12:55:38;20.40;60.50
70107;DHT22;57473;37.508;15.080;2023-02-23T13:01:20;20.10;61.20
70107;DHT22;57473;37.508;15.080;2023-02-23T13:07:08;19.60;63.20
70107;DHT22;57473;37.508;15.080;2023-02-23T13:10:09;20.00;61.70
70107;DHT22;57473;37.508;15.080;2023-02-23T13:20:42;20.10;61.80
70107;DHT22;57473;37.508;15.080;2023-02-23T13:23:22;20.10;61.90
70107;DHT22;57473;37.508;15.080;2023-02-23T13:28:56;19.60;63.60
70107;DHT22;57473;37.508;15.080;2023-02-23T13:31:30;19.20;66.20
70107;DHT22;57473;37.508;15.080;2023-02-23T13:34:00;19.30;65.20
70107;DHT22;57473;37.508;15.080;2023-02-23T13:36:31;18.90;66.60
70107;DHT22;57473;37.508;15.080;2023-02-23T13:53:35;17.00;76.40
70107;DHT22;57473;37.508;15.080;2023-02-23T13:59:05;16.70;78.70
70107;DHT22;57473;37.508;15.080;2023-02-23T14:01:41;16.40;80.50
70107;DHT22;57473;37.508;15.080;2023-02-23T14:04:24;16.40;81.10
70107;DHT22;57473;37.508;15.080;2023-02-23T14:09:32;16.30;82.20
70107;DHT22;57473;37.508;15.080;2023-02-23T14:14:51;16.20;82.60
70107;DHT22;57473;37.508;15.080;2023-02-23T14:23:15;16.00;84.80
70107;DHT22;57473;37.508;15.080;2023-02-23T14:28:34;15.80;86.10
70107;DHT22;57473;37.508;15.080;2023-02-23T14:39:02;15.90;87.10
70107;DHT22;57473;37.508;15.080;2023-02-23T14:44:10;16.10;85.30
70107;DHT22;57473;37.508;15.080;2023-02-23T14:47:14;16.10;85.30
70107;DHT22;57473;37.508;15.080;2023-02-23T14:49:50;16.10;85.80
70107;DHT22;57473;37.508;15.080;2023-02-23T14:52:21;16.00;85.80
70107;DHT22;57473;37.508;15.080;2023-02-23T14:54:51;15.90;86.30
70107;DHT22;57473;37.508;15.080;2023-02-23T14:57:23;15.90;86.90
70107;DHT22;57473;37.508;15.080;2023-02-23T15:00:05;15.80;88.00
70107;DHT22;57473;37.508;15.080;2023-02-23T15:02:33;15.80;87.90
70107;DHT22;57473;37.508;15.080;2023-02-23T15:05:16;15.80;87.50
70107;DHT22;57473;37.508;15.080;2023-02-23T15:07:44;15.90;86.80
70107;DHT22;57473;37.508;15.080;2023-02-23T15:10:19;15.80;87.10
70107;DHT22;57473;37.508;15.080;2023-02-23T15:12:48;15.80;87.00
70107;DHT22;57473;37.508;15.080;2023-02-23T15:15:23;15.70;87.40
70107;DHT22;57473;37.508;15.080;2023-02-23T15:17:54;15.50;88.70
70107;DHT22;57473;37.508;15.080;2023-02-23T15:20:30;15.50;88.80
70107;DHT22;57473;37.508;15.080;2023-02-23T15:23:02;15.50;89.10
70107;DHT22;57473;37.508;15.080;2023-02-23T15:25:39;15.50;89.00
70107;DHT22;57473;37.508;15.080;2023-02-23T15:28:26;15.40;89.00
70107;DHT22;57473;37.508;15.080;2023-02-23T15:31:00;15.40;89.90
70107;DHT22;57473;37.508;15.080;2023-02-23T15:33:28;15.30;90.80
70107;DHT22;57473;37.508;15.080;2023-02-23T15:38:33;15.20;91.00
70107;DHT22;57473;37.508;15.080;2023-02-23T15:41:34;15.20;91.80
70107;DHT22;57473;37.508;15.080;2023-02-23T15:44:10;15.00;93.10
70107;DHT22;57473;37.508;15.080;2023-02-23T15:46:40;15.00;92.90
70107;DHT22;57473;37.508;15.080;2023-02-23T15:49:12;15.00;92.90
70107;DHT22;57473;37.508;15.080;2023-02-23T15:51:44;14.90;94.10
70107;DHT22;57473;37.508;15.080;2023-02-23T15:54:31;15.00;94.30
70107;DHT22;57473;37.508;15.080;2023-02-23T15:57:06;15.00;94.30
70107;DHT22;57473;37.508;15.080;2023-02-23T15:59:39;14.90;93.20
70107;DHT22;57473;37.508;15.080;2023-02-23T16:02:18;14.90;92.40
70107;DHT22;57473;37.508;15.080;2023-02-23T16:04:46;14.90;93.40
70107;DHT22;57473;37.508;15.080;2023-02-23T16:07:25;14.80;93.90
70107;DHT22;57473;37.508;15.080;2023-02-23T16:10:01;14.70;94.70
70107;DHT22;57473;37.508;15.080;2023-02-23T16:12:31;14.70;95.20
70107;DHT22;57473;37.508;15.080;2023-02-23T16:15:02;14.60;95.50
70107;DHT22;57473;37.508;15.080;2023-02-23T16:17:41;14.60;95.90
70107;DHT22;57473;37.508;15.080;2023-02-23T16:20:16;14.60;96.30
70107;DHT22;57473;37.508;15.080;2023-02-23T16:22:47;14.60;96.20
70107;DHT22;57473;37.508;15.080;2023-02-23T16:25:20;14.50;96.40
70107;DHT22;57473;37.508;15.080;2023-02-23T16:28:02;14.50;97.00
70107;DHT22;57473;37.508;15.080;2023-02-23T16:33:20;14.40;97.00
70107;DHT22;57473;37.508;15.080;2023-02-23T16:35:52;14.40;97.50
70107;DHT22;57473;37.508;15.080;2023-02-23T16:38:29;14.30;98.10
70107;DHT22;57473;37.508;15.080;2023-02-23T16:41:04;14.30;98.60
70107;DHT22;57473;37.508;15.080;2023-02-23T16:43:32;14.20;98.90
70107;DHT22;57473;37.508;15.080;2023-02-23T16:46:01;14.20;99.40
70107;DHT22;57473;37.508;15.080;2023-02-23T16:48:28;14.20;99.20
70107;DHT22;57473;37.508;15.080;2023-02-23T16:50:56;14.10;99.70
70107;DHT22;57473;37.508;15.080;2023-02-23T16:53:23;14.10;99.90
70107;DHT22;57473;37.508;15.080;2023-02-23T16:55:55;14.10;99.90
70107;DHT22;57473;37.508;15.080;2023-02-23T16:58:27;14.10;99.90
70107;DHT22;57473;37.508;15.080;2023-02-23T17:00:56;14.00;99.90
70107;DHT22;57473;37.508;15.080;2023-02-23T17:03:26;14.00;99.90
70107;DHT22;57473;37.508;15.080;2023-02-23T17:05:54;13.90;99.90
70107;DHT22;57473;37.508;15.080;2023-02-23T17:08:21;13.90;99.90
70107;DHT22;57473;37.508;15.080;2023-02-23T17:10:50;13.90;99.90
70107;DHT22;57473;37.508;15.080;2023-02-23T17:13:24;13.80;99.90
70107;DHT22;57473;37.508;15.080;2023-02-23T17:15:54;13.80;99.90
70107;DHT22;57473;37.508;15.080;2023-02-23T17:18:27;13.80;99.90
70107;DHT22;57473;37.508;15.080;2023-02-23T17:20:59;13.80;99.90
70107;DHT22;57473;37.508;15.080;2023-02-23T17:23:28;13.80;99.90
70107;DHT22;57473;37.508;15.080;2023-02-23T17:26:06;13.80;99.90
70107;DHT22;57473;37.508;15.080;2023-02-23T17:28:34;13.80;99.90
70107;DHT22;57473;37.508;15.080;2023-02-23T17:31:02;13.80;99.90
70107;DHT22;57473;37.508;15.080;2023-02-23T17:33:30;13.80;99.90
70107;DHT22;57473;37.508;15.080;2023-02-23T17:36:00;13.70;99.90
70107;DHT22;57473;37.508;15.080;2023-02-23T17:38:28;13.80;99.90
70107;DHT22;57473;37.508;15.080;2023-02-23T17:41:04;13.80;99.90
70107;DHT22;57473;37.508;15.080;2023-02-23T17:43:32;13.80;99.90
70107;DHT22;57473;37.508;15.080;2023-02-23T17:45:59;13.80;99.90
70107;DHT22;57473;37.508;15.080;2023-02-23T17:48:27;13.80;99.90
70107;DHT22;57473;37.508;15.080;2023-02-23T17:50:59;13.80;99.90
70107;DHT22;57473;37.508;15.080;2023-02-23T17:53:28;13.80;99.90
70107;DHT22;57473;37.508;15.080;2023-02-23T17:55:56;13.90;99.90
70107;DHT22;57473;37.508;15.080;2023-02-23T17:58:24;13.80;99.90
70107;DHT22;57473;37.508;15.080;2023-02-23T18:01:00;13.80;99.90
70107;DHT22;57473;37.508;15.080;2023-02-23T18:03:29;13.80;99.90
70107;DHT22;57473;37.508;15.080;2023-02-23T18:06:02;13.80;99.90
70107;DHT22;57473;37.508;15.080;2023-02-23T18:08:30;13.70;99.90
70107;DHT22;57473;37.508;15.080;2023-02-23T18:10:58;13.70;99.90
70107;DHT22;57473;37.508;15.080;2023-02-23T18:13:26;13.70;99.90